sensor_id;sensor_type;location;lat;lon;timestamp;temperature;humidity
70271;SHT31;57680;54.292;18.598;2022-07-03T00:00:24;13.73;93.81
70271;SHT31;57680;54.292;18.598;2022-07-03T00:02:49;13.82;93.74
70271;SHT31;57680;54.292;18.598;2022-07-03T00:05:14;13.80;93.70
70271;SHT31;57680;54.292;18.598;2022-07-03T00:07:40;13.77;94.28
70271;SHT31;57680;54.292;18.598;2022-07-03T00:10:06;13.82;94.43
70271;SHT31;57680;54.292;18.598;2022-07-03T00:12:31;13.84;94.60
70271;SHT31;57680;54.292;18.598;2022-07-03T00:14:57;13.87;94.38
70271;SHT31;57680;54.292;18.598;2022-07-03T00:17:22;13.89;94.56
70271;SHT31;57680;54.292;18.598;2022-07-03T00:19:48;13.93;94.69
70271;SHT31;57680;54.292;18.598;2022-07-03T00:22:14;13.94;94.86
70271;SHT31;57680;54.292;18.598;2022-07-03T00:24:43;13.96;94.92
70271;SHT31;57680;54.292;18.598;2022-07-03T00:27:10;14.02;94.57
70271;SHT31;57680;54.292;18.598;2022-07-03T00:29:38;13.93;94.39
70271;SHT31;57680;54.292;18.598;2022-07-03T00:32:11;13.84;94.64
70271;SHT31;57680;54.292;18.598;2022-07-03T00:34:38;13.84;94.87
70271;SHT31;57680;54.292;18.598;2022-07-03T00:37:06;13.77;94.68
70271;SHT31;57680;54.292;18.598;2022-07-03T00:39:32;13.89;94.82
70271;SHT31;57680;54.292;18.598;2022-07-03T00:42:00;13.86;94.89
70271;SHT31;57680;54.292;18.598;2022-07-03T00:44:28;13.80;94.97
70271;SHT31;57680;54.292;18.598;2022-07-03T00:46:55;13.83;94.90
70271;SHT31;57680;54.292;18.598;2022-07-03T00:49:23;13.90;95.01
70271;SHT31;57680;54.292;18.598;2022-07-03T00:51:52;13.87;94.86
70271;SHT31;57680;54.292;18.598;2022-07-03T00:54:21;13.83;94.99
70271;SHT31;57680;54.292;18.598;2022-07-03T00:56:52;13.72;94.77
70271;SHT31;57680;54.292;18.598;2022-07-03T00:59:19;13.65;94.72
70271;SHT31;57680;54.292;18.598;2022-07-03T01:01:46;13.56;94.70
70271;SHT31;57680;54.292;18.598;2022-07-03T01:06:57;13.49;95.96
70271;SHT31;57680;54.292;18.598;2022-07-03T01:09:48;13.59;95.65
70271;SHT31;57680;54.292;18.598;2022-07-03T01:12:46;13.51;95.70
70271;SHT31;57680;54.292;18.598;2022-07-03T01:16:05;13.53;96.00
70271;SHT31;57680;54.292;18.598;2022-07-03T01:18:17;13.56;96.23
70271;SHT31;57680;54.292;18.598;2022-07-03T01:20:52;13.53;95.80
70271;SHT31;57680;54.292;18.598;2022-07-03T01:23:31;13.53;95.84
70271;SHT31;57680;54.292;18.598;2022-07-03T01:26:03;13.52;96.15
70271;SHT31;57680;54.292;18.598;2022-07-03T01:28:31;13.49;95.91
70271;SHT31;57680;54.292;18.598;2022-07-03T01:30:57;13.52;96.07
70271;SHT31;57680;54.292;18.598;2022-07-03T01:33:31;13.53;95.82
70271;SHT31;57680;54.292;18.598;2022-07-03T01:36:03;13.55;95.99
70271;SHT31;57680;54.292;18.598;2022-07-03T01:38:36;13.52;95.97
70271;SHT31;57680;54.292;18.598;2022-07-03T01:41:03;13.51;95.86
70271;SHT31;57680;54.292;18.598;2022-07-03T01:43:34;13.49;96.04
70271;SHT31;57680;54.292;18.598;2022-07-03T01:46:02;13.56;95.96
70271;SHT31;57680;54.292;18.598;2022-07-03T01:48:29;13.56;95.52
70271;SHT31;57680;54.292;18.598;2022-07-03T01:50:56;13.62;95.34
70271;SHT31;57680;54.292;18.598;2022-07-03T01:53:26;13.65;95.18
70271;SHT31;57680;54.292;18.598;2022-07-03T01:55:55;13.73;94.89
70271;SHT31;57680;54.292;18.598;2022-07-03T01:58:22;13.70;94.83
70271;SHT31;57680;54.292;18.598;2022-07-03T02:03:33;13.82;94.65
70271;SHT31;57680;54.292;18.598;2022-07-03T02:06:02;13.80;94.46
70271;SHT31;57680;54.292;18.598;2022-07-03T02:11:17;13.67;94.52
70271;SHT31;57680;54.292;18.598;2022-07-03T02:13:51;13.69;94.61
70271;SHT31;57680;54.292;18.598;2022-07-03T02:16:20;13.73;94.54
70271;SHT31;57680;54.292;18.598;2022-07-03T02:18:54;13.70;94.19
70271;SHT31;57680;54.292;18.598;2022-07-03T02:21:25;13.70;94.33
70271;SHT31;57680;54.292;18.598;2022-07-03T02:24:16;13.72;94.73
70271;SHT31;57680;54.292;18.598;2022-07-03T02:26:49;13.99;93.52
70271;SHT31;57680;54.292;18.598;2022-07-03T02:29:20;14.06;92.99
70271;SHT31;57680;54.292;18.598;2022-07-03T02:31:55;14.27;92.49
70271;SHT31;57680;54.292;18.598;2022-07-03T02:34:23;14.67;90.89
70271;SHT31;57680;54.292;18.598;2022-07-03T02:36:52;14.96;89.30
70271;SHT31;57680;54.292;18.598;2022-07-03T02:39:27;15.24;87.79
70271;SHT31;57680;54.292;18.598;2022-07-03T02:42:02;15.57;86.41
70271;SHT31;57680;54.292;18.598;2022-07-03T02:44:35;15.84;85.00
70271;SHT31;57680;54.292;18.598;2022-07-03T02:47:17;16.18;85.55
70271;SHT31;57680;54.292;18.598;2022-07-03T02:55:10;17.56;79.42
70271;SHT31;57680;54.292;18.598;2022-07-03T02:57:40;17.94;78.08
70271;SHT31;57680;54.292;18.598;2022-07-03T03:00:09;18.38;77.60
70271;SHT31;57680;54.292;18.598;2022-07-03T03:02:55;18.84;75.39
70271;SHT31;57680;54.292;18.598;2022-07-03T03:05:37;19.18;73.38
70271;SHT31;57680;54.292;18.598;2022-07-03T03:08:21;19.33;72.20
70271;SHT31;57680;54.292;18.598;2022-07-03T03:10:50;19.49;71.14
70271;SHT31;57680;54.292;18.598;2022-07-03T03:13:16;19.54;70.50
70271;SHT31;57680;54.292;18.598;2022-07-03T03:16:11;19.60;68.64
70271;SHT31;57680;54.292;18.598;2022-07-03T03:18:39;20.10;70.41
70271;SHT31;57680;54.292;18.598;2022-07-03T03:21:14;20.26;68.11
70271;SHT31;57680;54.292;18.598;2022-07-03T03:23:48;20.46;66.99
70271;SHT31;57680;54.292;18.598;2022-07-03T03:26:19;20.79;66.39
70271;SHT31;57680;54.292;18.598;2022-07-03T03:28:45;20.86;66.70
70271;SHT31;57680;54.292;18.598;2022-07-03T03:31:11;21.01;64.43
70271;SHT31;57680;54.292;18.598;2022-07-03T03:33:41;21.34;64.26
70271;SHT31;57680;54.292;18.598;2022-07-03T03:36:08;21.57;62.92
70271;SHT31;57680;54.292;18.598;2022-07-03T03:38:36;21.74;61.77
70271;SHT31;57680;54.292;18.598;2022-07-03T03:41:03;22.10;61.82
70271;SHT31;57680;54.292;18.598;2022-07-03T03:43:32;22.40;62.43
70271;SHT31;57680;54.292;18.598;2022-07-03T03:45:58;22.74;59.35
70271;SHT31;57680;54.292;18.598;2022-07-03T03:48:28;22.84;59.57
70271;SHT31;57680;54.292;18.598;2022-07-03T03:50:57;23.14;57.74
70271;SHT31;57680;54.292;18.598;2022-07-03T03:53:26;23.08;58.25
70271;SHT31;57680;54.292;18.598;2022-07-03T03:56:07;22.90;57.91
70271;SHT31;57680;54.292;18.598;2022-07-03T03:58:37;23.02;59.61
70271;SHT31;57680;54.292;18.598;2022-07-03T04:01:04;23.09;56.63
70271;SHT31;57680;54.292;18.598;2022-07-03T04:03:30;23.48;55.89
70271;SHT31;57680;54.292;18.598;2022-07-03T04:05:56;23.76;55.65
70271;SHT31;57680;54.292;18.598;2022-07-03T04:08:22;24.07;56.64
70271;SHT31;57680;54.292;18.598;2022-07-03T04:10:48;24.39;54.78
70271;SHT31;57680;54.292;18.598;2022-07-03T04:13:15;24.24;54.43
70271;SHT31;57680;54.292;18.598;2022-07-03T04:15:41;24.41;54.36
70271;SHT31;57680;54.292;18.598;2022-07-03T04:18:07;24.49;54.85
70271;SHT31;57680;54.292;18.598;2022-07-03T04:20:33;24.67;53.00
70271;SHT31;57680;54.292;18.598;2022-07-03T04:22:59;24.69;53.77
70271;SHT31;57680;54.292;18.598;2022-07-03T04:25:24;24.85;53.18
70271;SHT31;57680;54.292;18.598;2022-07-03T04:27:50;24.89;52.91
70271;SHT31;57680;54.292;18.598;2022-07-03T04:30:15;25.05;52.55
70271;SHT31;57680;54.292;18.598;2022-07-03T04:32:41;25.03;53.45
70271;SHT31;57680;54.292;18.598;2022-07-03T04:35:07;25.38;52.49
70271;SHT31;57680;54.292;18.598;2022-07-03T04:37:33;25.40;51.70
70271;SHT31;57680;54.292;18.598;2022-07-03T04:39:58;25.09;53.48
70271;SHT31;57680;54.292;18.598;2022-07-03T04:42:24;25.37;53.51
70271;SHT31;57680;54.292;18.598;2022-07-03T04:44:49;25.30;52.63
70271;SHT31;57680;54.292;18.598;2022-07-03T04:47:15;25.38;53.53
70271;SHT31;57680;54.292;18.598;2022-07-03T04:49:41;25.82;52.21
70271;SHT31;57680;54.292;18.598;2022-07-03T04:52:07;26.49;52.14
70271;SHT31;57680;54.292;18.598;2022-07-03T04:54:33;26.72;51.01
70271;SHT31;57680;54.292;18.598;2022-07-03T04:56:58;26.77;50.57
70271;SHT31;57680;54.292;18.598;2022-07-03T04:59:24;26.64;49.73
70271;SHT31;57680;54.292;18.598;2022-07-03T05:01:49;26.69;49.06
70271;SHT31;57680;54.292;18.598;2022-07-03T05:04:18;26.49;48.93
70271;SHT31;57680;54.292;18.598;2022-07-03T05:06:44;26.42;49.35
70271;SHT31;57680;54.292;18.598;2022-07-03T05:09:10;26.49;49.95
70271;SHT31;57680;54.292;18.598;2022-07-03T05:11:35;26.38;49.09
70271;SHT31;57680;54.292;18.598;2022-07-03T05:14:04;26.93;50.62
70271;SHT31;57680;54.292;18.598;2022-07-03T05:16:31;27.27;49.87
70271;SHT31;57680;54.292;18.598;2022-07-03T05:18:56;27.63;49.60
70271;SHT31;57680;54.292;18.598;2022-07-03T05:21:22;27.95;49.09
70271;SHT31;57680;54.292;18.598;2022-07-03T05:23:47;28.00;46.64
70271;SHT31;57680;54.292;18.598;2022-07-03T05:26:13;27.78;48.92
70271;SHT31;57680;54.292;18.598;2022-07-03T05:28:38;28.17;48.20
70271;SHT31;57680;54.292;18.598;2022-07-03T05:31:04;28.44;46.07
70271;SHT31;57680;54.292;18.598;2022-07-03T05:33:30;28.64;46.41
70271;SHT31;57680;54.292;18.598;2022-07-03T05:35:56;28.81;44.86
70271;SHT31;57680;54.292;18.598;2022-07-03T05:38:22;28.84;44.77
70271;SHT31;57680;54.292;18.598;2022-07-03T05:41:06;29.04;43.91
70271;SHT31;57680;54.292;18.598;2022-07-03T05:43:32;28.87;44.22
70271;SHT31;57680;54.292;18.598;2022-07-03T05:45:57;28.88;43.84
70271;SHT31;57680;54.292;18.598;2022-07-03T05:48:23;28.91;44.40
70271;SHT31;57680;54.292;18.598;2022-07-03T05:50:48;28.92;43.56
70271;SHT31;57680;54.292;18.598;2022-07-03T05:53:14;28.74;45.17
70271;SHT31;57680;54.292;18.598;2022-07-03T05:55:39;28.61;45.12
70271;SHT31;57680;54.292;18.598;2022-07-03T05:58:04;28.84;44.84
70271;SHT31;57680;54.292;18.598;2022-07-03T06:00:30;28.91;42.92
70271;SHT31;57680;54.292;18.598;2022-07-03T06:02:55;29.18;42.93
70271;SHT31;57680;54.292;18.598;2022-07-03T06:05:21;29.19;41.46
70271;SHT31;57680;54.292;18.598;2022-07-03T06:07:46;29.29;41.77
70271;SHT31;57680;54.292;18.598;2022-07-03T06:10:12;29.18;42.33
70271;SHT31;57680;54.292;18.598;2022-07-03T06:12:37;29.33;41.92
70271;SHT31;57680;54.292;18.598;2022-07-03T06:15:03;29.32;42.55
70271;SHT31;57680;54.292;18.598;2022-07-03T06:17:29;29.45;41.86
70271;SHT31;57680;54.292;18.598;2022-07-03T06:19:54;29.20;42.42
70271;SHT31;57680;54.292;18.598;2022-07-03T06:22:19;28.81;42.74
70271;SHT31;57680;54.292;18.598;2022-07-03T06:24:45;28.79;43.49
70271;SHT31;57680;54.292;18.598;2022-07-03T06:27:10;29.08;43.67
70271;SHT31;57680;54.292;18.598;2022-07-03T06:29:36;29.08;41.96
70271;SHT31;57680;54.292;18.598;2022-07-03T06:32:01;29.01;42.52
70271;SHT31;57680;54.292;18.598;2022-07-03T06:34:27;28.98;44.08
70271;SHT31;57680;54.292;18.598;2022-07-03T06:36:52;28.99;44.61
70271;SHT31;57680;54.292;18.598;2022-07-03T06:39:18;28.76;44.75
70271;SHT31;57680;54.292;18.598;2022-07-03T06:41:43;28.54;45.04
70271;SHT31;57680;54.292;18.598;2022-07-03T06:44:09;28.28;44.75
70271;SHT31;57680;54.292;18.598;2022-07-03T06:46:34;28.10;46.73
70271;SHT31;57680;54.292;18.598;2022-07-03T06:48:59;27.90;47.30
70271;SHT31;57680;54.292;18.598;2022-07-03T06:51:25;27.69;47.40
70271;SHT31;57680;54.292;18.598;2022-07-03T06:53:50;27.65;46.82
70271;SHT31;57680;54.292;18.598;2022-07-03T06:56:16;27.51;47.33
70271;SHT31;57680;54.292;18.598;2022-07-03T06:58:41;27.59;46.71
70271;SHT31;57680;54.292;18.598;2022-07-03T07:01:07;27.25;47.78
70271;SHT31;57680;54.292;18.598;2022-07-03T07:03:32;27.27;48.67
70271;SHT31;57680;54.292;18.598;2022-07-03T07:05:58;26.87;49.92
70271;SHT31;57680;54.292;18.598;2022-07-03T07:08:23;27.00;49.68
70271;SHT31;57680;54.292;18.598;2022-07-03T07:10:48;26.86;50.77
70271;SHT31;57680;54.292;18.598;2022-07-03T07:13:14;27.20;49.55
70271;SHT31;57680;54.292;18.598;2022-07-03T07:15:39;27.37;47.91
70271;SHT31;57680;54.292;18.598;2022-07-03T07:18:05;27.48;49.38
70271;SHT31;57680;54.292;18.598;2022-07-03T07:20:30;27.45;45.42
70271;SHT31;57680;54.292;18.598;2022-07-03T07:22:55;27.25;47.07
70271;SHT31;57680;54.292;18.598;2022-07-03T07:25:21;27.37;46.02
70271;SHT31;57680;54.292;18.598;2022-07-03T07:27:46;26.90;45.94
70271;SHT31;57680;54.292;18.598;2022-07-03T07:30:13;26.79;47.30
70271;SHT31;57680;54.292;18.598;2022-07-03T07:32:38;26.86;48.63
70271;SHT31;57680;54.292;18.598;2022-07-03T07:35:04;27.07;47.29
70271;SHT31;57680;54.292;18.598;2022-07-03T07:37:32;26.87;46.10
70271;SHT31;57680;54.292;18.598;2022-07-03T07:39:57;26.82;48.94
70271;SHT31;57680;54.292;18.598;2022-07-03T07:42:22;26.96;48.26
70271;SHT31;57680;54.292;18.598;2022-07-03T07:44:49;26.94;49.34
70271;SHT31;57680;54.292;18.598;2022-07-03T07:47:15;27.18;48.33
70271;SHT31;57680;54.292;18.598;2022-07-03T07:49:40;27.12;47.70
70271;SHT31;57680;54.292;18.598;2022-07-03T07:52:06;27.17;46.93
70271;SHT31;57680;54.292;18.598;2022-07-03T07:54:31;27.31;46.09
70271;SHT31;57680;54.292;18.598;2022-07-03T07:56:57;25.98;47.53
70271;SHT31;57680;54.292;18.598;2022-07-03T07:59:22;25.13;47.61
70271;SHT31;57680;54.292;18.598;2022-07-03T08:01:48;25.58;48.54
70271;SHT31;57680;54.292;18.598;2022-07-03T08:04:32;25.61;48.45
70271;SHT31;57680;54.292;18.598;2022-07-03T08:07:15;25.95;45.71
70271;SHT31;57680;54.292;18.598;2022-07-03T08:09:41;25.84;43.42
70271;SHT31;57680;54.292;18.598;2022-07-03T08:12:06;25.64;43.22
70271;SHT31;57680;54.292;18.598;2022-07-03T08:14:32;25.30;44.76
70271;SHT31;57680;54.292;18.598;2022-07-03T08:16:57;25.41;44.34
70271;SHT31;57680;54.292;18.598;2022-07-03T08:19:23;25.36;43.56
70271;SHT31;57680;54.292;18.598;2022-07-03T08:21:48;25.68;48.79
70271;SHT31;57680;54.292;18.598;2022-07-03T08:24:14;25.94;46.76
70271;SHT31;57680;54.292;18.598;2022-07-03T08:26:41;26.09;47.21
70271;SHT31;57680;54.292;18.598;2022-07-03T08:29:07;26.42;46.45
70271;SHT31;57680;54.292;18.598;2022-07-03T08:31:32;25.87;48.04
70271;SHT31;57680;54.292;18.598;2022-07-03T08:33:58;26.21;45.32
70271;SHT31;57680;54.292;18.598;2022-07-03T08:36:23;26.33;46.04
70271;SHT31;57680;54.292;18.598;2022-07-03T08:38:48;26.02;43.91
70271;SHT31;57680;54.292;18.598;2022-07-03T08:41:14;25.84;44.27
70271;SHT31;57680;54.292;18.598;2022-07-03T08:43:42;26.22;46.25
70271;SHT31;57680;54.292;18.598;2022-07-03T08:46:10;26.39;47.49
70271;SHT31;57680;54.292;18.598;2022-07-03T08:48:37;26.39;46.49
70271;SHT31;57680;54.292;18.598;2022-07-03T08:51:03;26.32;44.91
70271;SHT31;57680;54.292;18.598;2022-07-03T08:53:29;26.43;46.56
70271;SHT31;57680;54.292;18.598;2022-07-03T08:55:54;26.66;46.78
70271;SHT31;57680;54.292;18.598;2022-07-03T08:58:22;26.50;45.19
70271;SHT31;57680;54.292;18.598;2022-07-03T09:00:48;26.46;44.61
70271;SHT31;57680;54.292;18.598;2022-07-03T09:03:15;26.32;43.92
70271;SHT31;57680;54.292;18.598;2022-07-03T09:05:40;26.50;43.29
70271;SHT31;57680;54.292;18.598;2022-07-03T09:08:07;26.25;40.26
70271;SHT31;57680;54.292;18.598;2022-07-03T09:10:34;26.42;44.62
70271;SHT31;57680;54.292;18.598;2022-07-03T09:12:59;26.70;44.39
70271;SHT31;57680;54.292;18.598;2022-07-03T09:15:25;26.87;44.20
70271;SHT31;57680;54.292;18.598;2022-07-03T09:18:01;26.25;41.06
70271;SHT31;57680;54.292;18.598;2022-07-03T09:20:37;26.12;41.60
70271;SHT31;57680;54.292;18.598;2022-07-03T09:23:20;25.77;41.25
70271;SHT31;57680;54.292;18.598;2022-07-03T09:25:59;26.04;43.55
70271;SHT31;57680;54.292;18.598;2022-07-03T09:31:14;26.57;41.66
70271;SHT31;57680;54.292;18.598;2022-07-03T09:39:27;25.89;37.86
70271;SHT31;57680;54.292;18.598;2022-07-03T09:42:06;25.98;39.91
70271;SHT31;57680;54.292;18.598;2022-07-03T09:47:19;25.44;40.90
70271;SHT31;57680;54.292;18.598;2022-07-03T09:52:43;25.15;41.14
70271;SHT31;57680;54.292;18.598;2022-07-03T10:03:07;26.05;42.99
70271;SHT31;57680;54.292;18.598;2022-07-03T10:05:36;26.35;42.09
70271;SHT31;57680;54.292;18.598;2022-07-03T10:08:07;26.59;41.99
70271;SHT31;57680;54.292;18.598;2022-07-03T10:10:37;26.33;42.12
70271;SHT31;57680;54.292;18.598;2022-07-03T10:13:03;26.15;41.87
70271;SHT31;57680;54.292;18.598;2022-07-03T10:15:30;26.09;44.49
70271;SHT31;57680;54.292;18.598;2022-07-03T10:17:57;26.08;41.77
70271;SHT31;57680;54.292;18.598;2022-07-03T10:23:05;26.26;43.42
70271;SHT31;57680;54.292;18.598;2022-07-03T10:25:31;25.87;46.00
70271;SHT31;57680;54.292;18.598;2022-07-03T10:27:56;25.57;42.11
70271;SHT31;57680;54.292;18.598;2022-07-03T10:30:23;25.33;44.57
70271;SHT31;57680;54.292;18.598;2022-07-03T10:32:51;25.27;44.10
70271;SHT31;57680;54.292;18.598;2022-07-03T10:35:21;25.41;42.26
70271;SHT31;57680;54.292;18.598;2022-07-03T10:37:55;25.19;44.63
70271;SHT31;57680;54.292;18.598;2022-07-03T10:40:40;25.41;43.49
70271;SHT31;57680;54.292;18.598;2022-07-03T10:43:31;25.20;41.77
70271;SHT31;57680;54.292;18.598;2022-07-03T10:46:17;25.03;42.69
70271;SHT31;57680;54.292;18.598;2022-07-03T10:51:24;24.78;43.35
70271;SHT31;57680;54.292;18.598;2022-07-03T10:53:49;24.59;44.05
70271;SHT31;57680;54.292;18.598;2022-07-03T10:56:15;24.73;45.56
70271;SHT31;57680;54.292;18.598;2022-07-03T10:58:59;24.80;44.82
70271;SHT31;57680;54.292;18.598;2022-07-03T11:01:26;24.65;46.02
70271;SHT31;57680;54.292;18.598;2022-07-03T11:03:53;24.68;44.11
70271;SHT31;57680;54.292;18.598;2022-07-03T11:06:20;24.78;45.48
70271;SHT31;57680;54.292;18.598;2022-07-03T11:09:03;25.26;47.28
70271;SHT31;57680;54.292;18.598;2022-07-03T11:11:55;25.31;43.71
70271;SHT31;57680;54.292;18.598;2022-07-03T11:14:22;25.43;44.20
70271;SHT31;57680;54.292;18.598;2022-07-03T11:16:48;25.27;40.19
70271;SHT31;57680;54.292;18.598;2022-07-03T11:19:14;25.00;41.88
70271;SHT31;57680;54.292;18.598;2022-07-03T11:21:42;25.20;44.86
70271;SHT31;57680;54.292;18.598;2022-07-03T11:27:13;25.22;41.83
70271;SHT31;57680;54.292;18.598;2022-07-03T11:29:39;25.16;42.61
70271;SHT31;57680;54.292;18.598;2022-07-03T11:35:08;25.15;44.62
70271;SHT31;57680;54.292;18.598;2022-07-03T11:37:33;25.07;43.87
70271;SHT31;57680;54.292;18.598;2022-07-03T11:40:03;24.98;42.95
70271;SHT31;57680;54.292;18.598;2022-07-03T11:42:34;25.13;44.79
70271;SHT31;57680;54.292;18.598;2022-07-03T11:45:00;25.26;42.95
70271;SHT31;57680;54.292;18.598;2022-07-03T11:47:29;24.83;42.55
70271;SHT31;57680;54.292;18.598;2022-07-03T11:49:56;24.82;42.99
70271;SHT31;57680;54.292;18.598;2022-07-03T11:52:39;24.85;43.12
70271;SHT31;57680;54.292;18.598;2022-07-03T11:55:04;24.86;41.74
70271;SHT31;57680;54.292;18.598;2022-07-03T11:57:30;24.76;42.34
70271;SHT31;57680;54.292;18.598;2022-07-03T12:00:06;24.79;42.28
70271;SHT31;57680;54.292;18.598;2022-07-03T12:02:31;24.80;42.52
70271;SHT31;57680;54.292;18.598;2022-07-03T12:04:57;24.65;43.14
70271;SHT31;57680;54.292;18.598;2022-07-03T12:07:22;24.48;43.53
70271;SHT31;57680;54.292;18.598;2022-07-03T12:09:49;24.47;44.06
70271;SHT31;57680;54.292;18.598;2022-07-03T12:12:15;24.49;44.99
70271;SHT31;57680;54.292;18.598;2022-07-03T12:14:50;24.41;46.30
70271;SHT31;57680;54.292;18.598;2022-07-03T12:17:18;24.35;44.23
70271;SHT31;57680;54.292;18.598;2022-07-03T12:19:49;24.42;43.80
70271;SHT31;57680;54.292;18.598;2022-07-03T12:25:00;24.48;45.47
70271;SHT31;57680;54.292;18.598;2022-07-03T12:27:27;24.65;45.74
70271;SHT31;57680;54.292;18.598;2022-07-03T12:29:53;24.49;44.60
70271;SHT31;57680;54.292;18.598;2022-07-03T12:32:20;24.62;44.80
70271;SHT31;57680;54.292;18.598;2022-07-03T12:34:45;24.65;45.39
70271;SHT31;57680;54.292;18.598;2022-07-03T12:37:11;24.76;46.39
70271;SHT31;57680;54.292;18.598;2022-07-03T12:39:47;24.93;45.31
70271;SHT31;57680;54.292;18.598;2022-07-03T12:42:20;24.82;43.35
70271;SHT31;57680;54.292;18.598;2022-07-03T12:44:59;24.82;44.80
70271;SHT31;57680;54.292;18.598;2022-07-03T12:47:26;24.80;43.92
70271;SHT31;57680;54.292;18.598;2022-07-03T12:52:21;24.62;46.99
70271;SHT31;57680;54.292;18.598;2022-07-03T12:54:47;24.65;43.77
70271;SHT31;57680;54.292;18.598;2022-07-03T12:57:12;24.52;46.54
70271;SHT31;57680;54.292;18.598;2022-07-03T13:02:33;24.52;45.25
70271;SHT31;57680;54.292;18.598;2022-07-03T13:05:00;24.58;45.06
70271;SHT31;57680;54.292;18.598;2022-07-03T13:07:32;24.54;46.84
70271;SHT31;57680;54.292;18.598;2022-07-03T13:10:00;24.41;48.55
70271;SHT31;57680;54.292;18.598;2022-07-03T13:12:28;24.27;47.79
70271;SHT31;57680;54.292;18.598;2022-07-03T13:15:07;24.31;51.24
70271;SHT31;57680;54.292;18.598;2022-07-03T13:22:53;23.99;53.30
70271;SHT31;57680;54.292;18.598;2022-07-03T13:25:19;24.04;53.16
70271;SHT31;57680;54.292;18.598;2022-07-03T13:27:45;24.14;54.46
70271;SHT31;57680;54.292;18.598;2022-07-03T13:30:14;24.03;53.70
70271;SHT31;57680;54.292;18.598;2022-07-03T13:32:40;24.04;52.50
70271;SHT31;57680;54.292;18.598;2022-07-03T13:35:06;23.89;52.86
70271;SHT31;57680;54.292;18.598;2022-07-03T13:37:32;23.93;54.10
70271;SHT31;57680;54.292;18.598;2022-07-03T13:39:58;23.86;53.58
70271;SHT31;57680;54.292;18.598;2022-07-03T13:42:24;23.76;52.98
70271;SHT31;57680;54.292;18.598;2022-07-03T13:44:49;23.83;53.99
70271;SHT31;57680;54.292;18.598;2022-07-03T13:47:18;23.86;52.50
70271;SHT31;57680;54.292;18.598;2022-07-03T13:49:43;23.76;53.29
70271;SHT31;57680;54.292;18.598;2022-07-03T13:52:09;23.76;53.24
70271;SHT31;57680;54.292;18.598;2022-07-03T13:54:34;23.87;56.49
70271;SHT31;57680;54.292;18.598;2022-07-03T13:57:01;23.70;55.67
70271;SHT31;57680;54.292;18.598;2022-07-03T13:59:26;23.69;54.11
70271;SHT31;57680;54.292;18.598;2022-07-03T14:01:52;23.66;54.55
70271;SHT31;57680;54.292;18.598;2022-07-03T14:04:17;23.53;56.21
70271;SHT31;57680;54.292;18.598;2022-07-03T14:06:43;23.74;55.58
70271;SHT31;57680;54.292;18.598;2022-07-03T14:09:08;23.86;55.13
70271;SHT31;57680;54.292;18.598;2022-07-03T14:11:34;23.80;55.69
70271;SHT31;57680;54.292;18.598;2022-07-03T14:13:59;23.71;56.21
70271;SHT31;57680;54.292;18.598;2022-07-03T14:16:25;23.77;57.88
70271;SHT31;57680;54.292;18.598;2022-07-03T14:18:51;23.77;55.63
70271;SHT31;57680;54.292;18.598;2022-07-03T14:21:16;23.67;55.15
70271;SHT31;57680;54.292;18.598;2022-07-03T14:23:41;23.76;55.29
70271;SHT31;57680;54.292;18.598;2022-07-03T14:26:07;23.71;55.03
70271;SHT31;57680;54.292;18.598;2022-07-03T14:28:32;23.69;54.64
70271;SHT31;57680;54.292;18.598;2022-07-03T14:31:17;23.66;54.24
70271;SHT31;57680;54.292;18.598;2022-07-03T14:34:01;23.58;54.81
70271;SHT31;57680;54.292;18.598;2022-07-03T14:36:26;23.59;54.60
70271;SHT31;57680;54.292;18.598;2022-07-03T14:38:52;23.81;54.27
70271;SHT31;57680;54.292;18.598;2022-07-03T14:41:17;23.81;53.81
70271;SHT31;57680;54.292;18.598;2022-07-03T14:43:42;23.73;53.76
70271;SHT31;57680;54.292;18.598;2022-07-03T14:46:08;23.67;53.03
70271;SHT31;57680;54.292;18.598;2022-07-03T14:48:33;23.71;54.13
70271;SHT31;57680;54.292;18.598;2022-07-03T14:50:59;23.66;55.36
70271;SHT31;57680;54.292;18.598;2022-07-03T14:53:25;23.74;54.03
70271;SHT31;57680;54.292;18.598;2022-07-03T14:55:50;23.69;54.51
70271;SHT31;57680;54.292;18.598;2022-07-03T14:58:19;23.63;54.94
70271;SHT31;57680;54.292;18.598;2022-07-03T15:00:56;23.60;56.34
70271;SHT31;57680;54.292;18.598;2022-07-03T15:03:30;23.53;55.78
70271;SHT31;57680;54.292;18.598;2022-07-03T15:06:01;23.49;55.00
70271;SHT31;57680;54.292;18.598;2022-07-03T15:11:21;23.45;56.50
70271;SHT31;57680;54.292;18.598;2022-07-03T15:14:07;23.50;57.31
70271;SHT31;57680;54.292;18.598;2022-07-03T15:16:35;23.50;56.69
70271;SHT31;57680;54.292;18.598;2022-07-03T15:19:02;23.53;56.29
70271;SHT31;57680;54.292;18.598;2022-07-03T15:21:29;23.52;56.48
70271;SHT31;57680;54.292;18.598;2022-07-03T15:24:07;23.43;56.91
70271;SHT31;57680;54.292;18.598;2022-07-03T15:26:32;23.45;56.74
70271;SHT31;57680;54.292;18.598;2022-07-03T15:29:00;23.39;57.02
70271;SHT31;57680;54.292;18.598;2022-07-03T15:31:28;23.41;58.10
70271;SHT31;57680;54.292;18.598;2022-07-03T15:33:54;23.33;57.89
70271;SHT31;57680;54.292;18.598;2022-07-03T15:36:26;23.28;58.11
70271;SHT31;57680;54.292;18.598;2022-07-03T15:39:03;23.28;58.93
70271;SHT31;57680;54.292;18.598;2022-07-03T15:41:39;23.28;59.22
70271;SHT31;57680;54.292;18.598;2022-07-03T15:49:39;22.95;60.10
70271;SHT31;57680;54.292;18.598;2022-07-03T15:52:19;23.01;60.41
70271;SHT31;57680;54.292;18.598;2022-07-03T16:00:14;22.94;60.16
70271;SHT31;57680;54.292;18.598;2022-07-03T16:03:02;22.94;59.19
70271;SHT31;57680;54.292;18.598;2022-07-03T16:05:34;23.01;60.45
70271;SHT31;57680;54.292;18.598;2022-07-03T16:08:03;22.90;60.60
70271;SHT31;57680;54.292;18.598;2022-07-03T16:10:31;22.94;60.56
70271;SHT31;57680;54.292;18.598;2022-07-03T16:12:58;22.78;60.62
70271;SHT31;57680;54.292;18.598;2022-07-03T16:15:28;22.74;60.54
70271;SHT31;57680;54.292;18.598;2022-07-03T16:17:54;22.70;60.35
70271;SHT31;57680;54.292;18.598;2022-07-03T16:20:24;22.77;62.07
70271;SHT31;57680;54.292;18.598;2022-07-03T16:22:55;22.77;63.34
70271;SHT31;57680;54.292;18.598;2022-07-03T16:25:21;22.72;63.03
70271;SHT31;57680;54.292;18.598;2022-07-03T16:27:47;22.72;63.35
70271;SHT31;57680;54.292;18.598;2022-07-03T16:30:12;22.74;63.63
70271;SHT31;57680;54.292;18.598;2022-07-03T16:32:58;22.70;63.71
70271;SHT31;57680;54.292;18.598;2022-07-03T16:35:46;22.65;63.88
70271;SHT31;57680;54.292;18.598;2022-07-03T16:38:19;22.64;63.51